sensor_id;sensor_type;location;lat;lon;timestamp;pressure;altitude;pressure_sealevel;temperature;humidity
14295;BME280;7231;59.370;18.016;2022-08-19T00:01:53;101168.72;;;20.55;96.44
14295;BME280;7231;59.370;18.016;2022-08-19T00:04:25;101204.09;;;20.72;96.75
14295;BME280;7231;59.370;18.016;2022-08-19T00:06:55;101205.94;;;20.66;97.29
14295;BME280;7231;59.370;18.016;2022-08-19T00:09:24;101201.56;;;20.56;97.68
14295;BME280;7231;59.370;18.016;2022-08-19T00:11:53;101159.09;;;20.28;98.10
14295;BME280;7231;59.370;18.016;2022-08-19T00:14:25;101202.47;;;20.52;98.86
14295;BME280;7231;59.370;18.016;2022-08-19T00:16:54;101198.09;;;20.45;99.27
14295;BME280;7231;59.370;18.016;2022-08-19T00:19:23;101168.84;;;20.31;99.68
14295;BME280;7231;59.370;18.016;2022-08-19T00:21:54;101202.50;;;20.47;100.00
14295;BME280;7231;59.370;18.016;2022-08-19T00:24:23;101188.38;;;20.30;100.00
14295;BME280;7231;59.370;18.016;2022-08-19T00:26:51;101175.09;;;20.25;100.00
14295;BME280;7231;59.370;18.016;2022-08-19T00:29:20;101207.88;;;20.42;100.00
14295;BME280;7231;59.370;18.016;2022-08-19T00:31:49;101190.13;;;20.34;100.00
14295;BME280;7231;59.370;18.016;2022-08-19T00:34:21;101212.31;;;20.42;100.00
14295;BME280;7231;59.370;18.016;2022-08-19T00:36:50;101141.47;;;20.07;100.00
14295;BME280;7231;59.370;18.016;2022-08-19T00:39:18;101201.59;;;20.51;100.00
14295;BME280;7231;59.370;18.016;2022-08-19T00:41:47;101013.22;;;19.43;100.00
14295;BME280;7231;59.370;18.016;2022-08-19T00:44:18;101191.78;;;20.56;100.00
14295;BME280;7231;59.370;18.016;2022-08-19T00:46:54;101190.88;;;20.57;100.00
14295;BME280;7231;59.370;18.016;2022-08-19T00:49:31;101186.44;;;20.59;100.00
14295;BME280;7231;59.370;18.016;2022-08-19T00:52:03;101185.56;;;20.59;100.00
14295;BME280;7231;59.370;18.016;2022-08-19T00:54:32;101171.34;;;20.57;100.00
14295;BME280;7231;59.370;18.016;2022-08-19T00:57:02;101185.50;;;20.65;100.00
14295;BME280;7231;59.370;18.016;2022-08-19T00:59:34;101183.72;;;20.65;100.00
14295;BME280;7231;59.370;18.016;2022-08-19T01:02:23;101188.13;;;20.71;100.00
14295;BME280;7231;59.370;18.016;2022-08-19T01:04:52;101117.31;;;20.39;100.00
14295;BME280;7231;59.370;18.016;2022-08-19T01:07:21;101178.22;;;20.81;100.00
14295;BME280;7231;59.370;18.016;2022-08-19T01:09:49;101169.41;;;20.79;100.00
14295;BME280;7231;59.370;18.016;2022-08-19T01:12:18;101179.06;;;20.86;100.00
14295;BME280;7231;59.370;18.016;2022-08-19T01:14:46;101185.25;;;20.89;100.00
14295;BME280;7231;59.370;18.016;2022-08-19T01:17:16;101138.47;;;20.61;100.00
14295;BME280;7231;59.370;18.016;2022-08-19T01:19:45;101184.41;;;20.87;100.00
14295;BME280;7231;59.370;18.016;2022-08-19T01:22:25;101179.97;;;20.85;100.00
14295;BME280;7231;59.370;18.016;2022-08-19T01:24:59;101175.56;;;20.82;100.00
14295;BME280;7231;59.370;18.016;2022-08-19T01:27:37;101167.63;;;20.78;100.00
14295;BME280;7231;59.370;18.016;2022-08-19T01:30:12;101174.63;;;20.86;100.00
14295;BME280;7231;59.370;18.016;2022-08-19T01:32:40;101105.69;;;20.53;100.00
14295;BME280;7231;59.370;18.016;2022-08-19T01:35:11;101166.59;;;20.91;100.00
14295;BME280;7231;59.370;18.016;2022-08-19T01:37:46;101169.22;;;20.95;100.00
14295;BME280;7231;59.370;18.016;2022-08-19T01:40:16;101123.28;;;20.69;100.00
14295;BME280;7231;59.370;18.016;2022-08-19T01:42:46;101167.41;;;20.97;100.00
14295;BME280;7231;59.370;18.016;2022-08-19T01:45:14;101174.50;;;21.00;100.00
14295;BME280;7231;59.370;18.016;2022-08-19T01:47:42;101146.22;;;20.84;100.00
14295;BME280;7231;59.370;18.016;2022-08-19T01:50:26;101173.59;;;21.01;100.00
14295;BME280;7231;59.370;18.016;2022-08-19T01:52:56;101176.28;;;21.01;100.00
14295;BME280;7231;59.370;18.016;2022-08-19T01:55:35;101178.94;;;21.02;100.00
14295;BME280;7231;59.370;18.016;2022-08-19T01:58:08;101160.38;;;20.92;100.00
14295;BME280;7231;59.370;18.016;2022-08-19T02:00:39;101175.41;;;20.99;100.00
14295;BME280;7231;59.370;18.016;2022-08-19T02:03:08;101166.59;;;20.91;100.00
14295;BME280;7231;59.370;18.016;2022-08-19T02:05:38;101165.63;;;20.98;100.00
14295;BME280;7231;59.370;18.016;2022-08-19T02:08:08;101175.34;;;21.03;100.00
14295;BME280;7231;59.370;18.016;2022-08-19T02:10:39;101091.41;;;20.60;100.00
14295;BME280;7231;59.370;18.016;2022-08-19T02:13:08;101155.88;;;20.97;100.00
14295;BME280;7231;59.370;18.016;2022-08-19T02:15:37;101154.97;;;20.98;100.00
14295;BME280;7231;59.370;18.016;2022-08-19T02:18:05;101172.66;;;21.06;100.00
14295;BME280;7231;59.370;18.016;2022-08-19T02:20:34;101170.88;;;21.07;100.00
14295;BME280;7231;59.370;18.016;2022-08-19T02:23:03;101170.88;;;21.08;100.00
14295;BME280;7231;59.370;18.016;2022-08-19T02:25:41;101167.34;;;21.06;100.00
14295;BME280;7231;59.370;18.016;2022-08-19T02:28:09;101174.44;;;21.06;100.00
14295;BME280;7231;59.370;18.016;2022-08-19T02:30:44;101114.38;;;20.73;100.00
14295;BME280;7231;59.370;18.016;2022-08-19T02:33:12;101172.66;;;21.08;100.00
14295;BME280;7231;59.370;18.016;2022-08-19T02:35:41;101176.22;;;21.07;100.00
14295;BME280;7231;59.370;18.016;2022-08-19T02:38:09;101173.56;;;21.07;100.00
14295;BME280;7231;59.370;18.016;2022-08-19T02:41:01;101139.06;;;20.89;100.00
14295;BME280;7231;59.370;18.016;2022-08-19T02:43:32;101167.31;;;21.08;100.00
14295;BME280;7231;59.370;18.016;2022-08-19T02:46:11;101143.44;;;20.97;100.00
14295;BME280;7231;59.370;18.016;2022-08-19T02:48:40;101170.88;;;21.08;100.00
14295;BME280;7231;59.370;18.016;2022-08-19T02:51:08;101165.56;;;21.05;100.00
14295;BME280;7231;59.370;18.016;2022-08-19T02:53:36;101163.81;;;21.04;100.00
14295;BME280;7231;59.370;18.016;2022-08-19T02:56:07;101164.66;;;21.06;100.00
14295;BME280;7231;59.370;18.016;2022-08-19T02:58:35;101168.19;;;21.10;100.00
14295;BME280;7231;59.370;18.016;2022-08-19T03:01:04;101153.19;;;20.98;100.00
14295;BME280;7231;59.370;18.016;2022-08-19T03:03:33;101160.25;;;21.02;100.00
14295;BME280;7231;59.370;18.016;2022-08-19T03:06:07;101153.25;;;20.91;100.00
14295;BME280;7231;59.370;18.016;2022-08-19T03:08:36;101165.66;;;20.96;100.00
14295;BME280;7231;59.370;18.016;2022-08-19T03:11:05;101168.38;;;20.90;100.00
14295;BME280;7231;59.370;18.016;2022-08-19T03:13:36;101173.72;;;20.90;100.00
14295;BME280;7231;59.370;18.016;2022-08-19T03:16:04;101150.63;;;20.86;100.00
14295;BME280;7231;59.370;18.016;2022-08-19T03:18:32;101172.75;;;20.99;100.00
14295;BME280;7231;59.370;18.016;2022-08-19T03:21:01;101171.84;;;20.98;100.00
14295;BME280;7231;59.370;18.016;2022-08-19T03:23:28;101168.31;;;20.96;100.00
14295;BME280;7231;59.370;18.016;2022-08-19T03:25:57;101169.19;;;20.97;100.00
14295;BME280;7231;59.370;18.016;2022-08-19T03:28:44;101170.94;;;20.99;100.00
14295;BME280;7231;59.370;18.016;2022-08-19T03:31:19;101172.75;;;20.99;100.00
14295;BME280;7231;59.370;18.016;2022-08-19T03:34:08;101181.63;;;20.99;100.00
14295;BME280;7231;59.370;18.016;2022-08-19T03:36:39;101182.53;;;20.98;100.00
14295;BME280;7231;59.370;18.016;2022-08-19T03:39:09;101182.53;;;20.98;100.00
14295;BME280;7231;59.370;18.016;2022-08-19T03:41:40;101178.94;;;21.02;100.00
14295;BME280;7231;59.370;18.016;2022-08-19T03:44:12;101156.81;;;20.93;100.00
14295;BME280;7231;59.370;18.016;2022-08-19T03:46:45;101177.97;;;21.10;100.00
14295;BME280;7231;59.370;18.016;2022-08-19T03:49:13;101178.88;;;21.08;100.00
14295;BME280;7231;59.370;18.016;2022-08-19T03:51:45;101175.34;;;21.05;100.00
14295;BME280;7231;59.370;18.016;2022-08-19T03:54:16;101185.94;;;21.13;100.00
14295;BME280;7231;59.370;18.016;2022-08-19T03:56:45;101184.16;;;21.12;100.00
14295;BME280;7231;59.370;18.016;2022-08-19T03:59:19;101177.09;;;21.07;100.00
14295;BME280;7231;59.370;18.016;2022-08-19T04:01:47;101189.47;;;21.15;100.00
14295;BME280;7231;59.370;18.016;2022-08-19T04:04:16;101173.59;;;21.02;100.00
14295;BME280;7231;59.370;18.016;2022-08-19T04:06:45;101101.09;;;20.67;100.00
14295;BME280;7231;59.370;18.016;2022-08-19T04:09:14;101192.97;;;21.24;100.00
14295;BME280;7231;59.370;18.016;2022-08-19T04:11:44;101191.19;;;21.23;100.00
14295;BME280;7231;59.370;18.016;2022-08-19T04:14:17;101177.91;;;21.16;100.00
14295;BME280;7231;59.370;18.016;2022-08-19T04:16:47;101190.31;;;21.23;100.00
14295;BME280;7231;59.370;18.016;2022-08-19T04:19:18;101191.22;;;21.22;100.00
14295;BME280;7231;59.370;18.016;2022-08-19T04:21:48;101192.09;;;21.22;100.00
14295;BME280;7231;59.370;18.016;2022-08-19T04:24:20;101203.63;;;21.26;100.00
14295;BME280;7231;59.370;18.016;2022-08-19T04:26:49;101200.94;;;21.26;100.00
14295;BME280;7231;59.370;18.016;2022-08-19T04:29:20;101160.28;;;21.01;100.00
14295;BME280;7231;59.370;18.016;2022-08-19T04:31:53;101180.59;;;21.13;100.00
14295;BME280;7231;59.370;18.016;2022-08-19T04:34:23;101190.31;;;21.20;100.00
14295;BME280;7231;59.370;18.016;2022-08-19T04:36:54;101182.31;;;21.18;100.00
14295;BME280;7231;59.370;18.016;2022-08-19T04:39:25;101173.50;;;21.13;100.00
14295;BME280;7231;59.370;18.016;2022-08-19T04:42:15;101199.13;;;21.29;100.00
14295;BME280;7231;59.370;18.016;2022-08-19T04:45:04;101204.41;;;21.35;100.00
14295;BME280;7231;59.370;18.016;2022-08-19T04:47:38;101207.97;;;21.36;100.00
14295;BME280;7231;59.370;18.016;2022-08-19T04:50:23;101212.41;;;21.37;100.00
14295;BME280;7231;59.370;18.016;2022-08-19T04:52:51;101176.97;;;21.23;100.00
14295;BME280;7231;59.370;18.016;2022-08-19T04:55:20;101207.88;;;21.44;100.00
14295;BME280;7231;59.370;18.016;2022-08-19T04:57:48;101209.59;;;21.49;100.00
14295;BME280;7231;59.370;18.016;2022-08-19T05:00:18;101200.75;;;21.46;100.00
14295;BME280;7231;59.370;18.016;2022-08-19T05:02:46;101213.09;;;21.54;100.00
14295;BME280;7231;59.370;18.016;2022-08-19T05:05:16;101205.91;;;21.61;100.00
14295;BME280;7231;59.370;18.016;2022-08-19T05:07:44;101192.59;;;21.59;100.00
14295;BME280;7231;59.370;18.016;2022-08-19T05:10:12;101202.31;;;21.65;100.00
14295;BME280;7231;59.370;18.016;2022-08-19T05:12:40;101180.16;;;21.57;100.00
14295;BME280;7231;59.370;18.016;2022-08-19T05:15:09;101181.91;;;21.59;100.00
14295;BME280;7231;59.370;18.016;2022-08-19T05:17:39;101197.78;;;21.71;100.00
14295;BME280;7231;59.370;18.016;2022-08-19T05:20:28;101172.06;;;21.64;100.00
14295;BME280;7231;59.370;18.016;2022-08-19T05:23:13;101183.41;;;21.82;100.00
14295;BME280;7231;59.370;18.016;2022-08-19T05:25:48;101186.94;;;21.84;100.00
14295;BME280;7231;59.370;18.016;2022-08-19T05:28:16;101191.31;;;21.91;100.00
14295;BME280;7231;59.370;18.016;2022-08-19T05:30:45;101188.56;;;21.95;100.00
14295;BME280;7231;59.370;18.016;2022-08-19T05:33:15;101184.97;;;21.98;100.00
14295;BME280;7231;59.370;18.016;2022-08-19T05:35:43;101177.84;;;22.00;100.00
14295;BME280;7231;59.370;18.016;2022-08-19T05:38:12;101188.50;;;22.03;100.00
14295;BME280;7231;59.370;18.016;2022-08-19T05:40:41;101187.59;;;22.04;100.00
14295;BME280;7231;59.370;18.016;2022-08-19T05:43:12;101184.06;;;22.00;100.00
14295;BME280;7231;59.370;18.016;2022-08-19T05:45:42;101183.19;;;22.00;100.00
14295;BME280;7231;59.370;18.016;2022-08-19T05:48:12;101078.06;;;21.41;100.00
14295;BME280;7231;59.370;18.016;2022-08-19T05:50:42;101184.94;;;22.04;100.00
14295;BME280;7231;59.370;18.016;2022-08-19T05:53:12;101142.50;;;21.80;100.00
14295;BME280;7231;59.370;18.016;2022-08-19T05:55:42;101189.28;;;22.11;100.00
14295;BME280;7231;59.370;18.016;2022-08-19T05:58:10;101191.84;;;22.19;99.59
14295;BME280;7231;59.370;18.016;2022-08-19T06:00:39;101188.16;;;22.27;99.48
14295;BME280;7231;59.370;18.016;2022-08-19T06:03:07;101191.59;;;22.37;98.78
14295;BME280;7231;59.370;18.016;2022-08-19T06:05:39;101189.69;;;22.44;98.54
14295;BME280;7231;59.370;18.016;2022-08-19T06:08:17;101165.78;;;22.36;98.64
14295;BME280;7231;59.370;18.016;2022-08-19T06:10:45;101108.34;;;22.06;98.05
14295;BME280;7231;59.370;18.016;2022-08-19T06:13:13;101180.72;;;22.49;97.70
14295;BME280;7231;59.370;18.016;2022-08-19T06:15:41;101162.16;;;22.40;97.39
14295;BME280;7231;59.370;18.016;2022-08-19T06:18:10;101165.56;;;22.50;97.14
14295;BME280;7231;59.370;18.016;2022-08-19T06:20:39;101147.84;;;22.44;96.70
14295;BME280;7231;59.370;18.016;2022-08-19T06:23:23;101161.88;;;22.57;96.87
14295;BME280;7231;59.370;18.016;2022-08-19T06:25:52;101153.06;;;22.52;96.33
14295;BME280;7231;59.370;18.016;2022-08-19T06:28:20;101165.38;;;22.62;96.73
14295;BME280;7231;59.370;18.016;2022-08-19T06:30:50;101165.22;;;22.71;96.45
14295;BME280;7231;59.370;18.016;2022-08-19T06:33:18;101173.09;;;22.79;96.11
14295;BME280;7231;59.370;18.016;2022-08-19T06:35:46;101113.88;;;22.51;95.41
14295;BME280;7231;59.370;18.016;2022-08-19T06:38:14;101147.31;;;22.75;95.34
14295;BME280;7231;59.370;18.016;2022-08-19T06:40:44;101181.69;;;22.99;94.95
14295;BME280;7231;59.370;18.016;2022-08-19T06:43:12;101186.91;;;23.07;94.59
14295;BME280;7231;59.370;18.016;2022-08-19T06:45:44;101190.28;;;23.18;94.17
14295;BME280;7231;59.370;18.016;2022-08-19T06:48:13;101191.94;;;23.25;93.90
14295;BME280;7231;59.370;18.016;2022-08-19T06:50:43;101196.19;;;23.35;93.46
14295;BME280;7231;59.370;18.016;2022-08-19T06:53:12;101198.63;;;23.46;93.33
14295;BME280;7231;59.370;18.016;2022-08-19T06:55:40;101195.81;;;23.55;92.61
14295;BME280;7231;59.370;18.016;2022-08-19T06:58:09;101183.97;;;23.67;92.18
14295;BME280;7231;59.370;18.016;2022-08-19T07:00:38;101189.97;;;23.79;91.59
14295;BME280;7231;59.370;18.016;2022-08-19T07:03:06;101185.22;;;23.92;90.94
14295;BME280;7231;59.370;18.016;2022-08-19T07:05:39;101193.78;;;24.09;90.15
14295;BME280;7231;59.370;18.016;2022-08-19T07:08:11;101176.50;;;24.22;90.62
14295;BME280;7231;59.370;18.016;2022-08-19T07:10:43;101181.84;;;24.63;90.58
14295;BME280;7231;59.370;18.016;2022-08-19T07:13:12;101071.25;;;24.53;89.78
14295;BME280;7231;59.370;18.016;2022-08-19T07:15:41;101185.03;;;25.79;87.46
14295;BME280;7231;59.370;18.016;2022-08-19T07:18:09;101186.72;;;26.40;85.04
14295;BME280;7231;59.370;18.016;2022-08-19T07:20:38;101185.88;;;26.93;82.54
14295;BME280;7231;59.370;18.016;2022-08-19T07:23:08;101174.94;;;27.48;78.74
14295;BME280;7231;59.370;18.016;2022-08-19T07:25:42;101181.94;;;27.79;76.11
14295;BME280;7231;59.370;18.016;2022-08-19T07:28:20;101195.94;;;28.35;74.57
14295;BME280;7231;59.370;18.016;2022-08-19T07:30:50;101202.22;;;28.78;73.06
14295;BME280;7231;59.370;18.016;2022-08-19T07:33:19;101192.19;;;29.24;70.71
14295;BME280;7231;59.370;18.016;2022-08-19T07:35:47;101191.59;;;29.58;69.00
14295;BME280;7231;59.370;18.016;2022-08-19T07:38:16;101173.38;;;29.82;66.80
14295;BME280;7231;59.370;18.016;2022-08-19T07:40:46;101172.69;;;30.16;64.73
14295;BME280;7231;59.370;18.016;2022-08-19T07:43:14;101187.66;;;30.42;64.69
14295;BME280;7231;59.370;18.016;2022-08-19T07:45:45;101166.66;;;30.65;62.32
14295;BME280;7231;59.370;18.016;2022-08-19T07:48:14;101141.19;;;30.70;61.79
14295;BME280;7231;59.370;18.016;2022-08-19T07:50:42;101135.69;;;31.06;60.26
14295;BME280;7231;59.370;18.016;2022-08-19T07:53:10;101172.16;;;31.50;58.95
14295;BME280;7231;59.370;18.016;2022-08-19T07:55:39;101170.44;;;31.65;58.35
14295;BME280;7231;59.370;18.016;2022-08-19T07:58:10;101182.94;;;31.85;57.94
14295;BME280;7231;59.370;18.016;2022-08-19T08:00:39;101169.66;;;32.12;56.46
14295;BME280;7231;59.370;18.016;2022-08-19T08:03:09;101174.00;;;32.47;54.76
14295;BME280;7231;59.370;18.016;2022-08-19T08:05:37;101162.31;;;32.61;54.67
14295;BME280;7231;59.370;18.016;2022-08-19T08:08:23;101164.69;;;32.83;53.78
14295;BME280;7231;59.370;18.016;2022-08-19T08:11:15;101177.19;;;33.15;53.26
14295;BME280;7231;59.370;18.016;2022-08-19T08:13:46;101181.34;;;33.37;52.10
14295;BME280;7231;59.370;18.016;2022-08-19T08:16:27;101178.84;;;33.48;51.69
14295;BME280;7231;59.370;18.016;2022-08-19T08:18:58;101165.84;;;33.67;50.43
14295;BME280;7231;59.370;18.016;2022-08-19T08:21:26;101167.09;;;33.62;50.16
14295;BME280;7231;59.370;18.016;2022-08-19T08:23:55;101172.44;;;33.49;49.76
14295;BME280;7231;59.370;18.016;2022-08-19T08:26:23;101145.91;;;33.38;49.97
14295;BME280;7231;59.370;18.016;2022-08-19T08:28:54;101163.31;;;33.64;49.60
14295;BME280;7231;59.370;18.016;2022-08-19T08:31:22;101158.25;;;33.86;49.33
14295;BME280;7231;59.370;18.016;2022-08-19T08:33:51;101162.00;;;34.12;48.39
14295;BME280;7231;59.370;18.016;2022-08-19T08:36:20;101150.31;;;34.25;47.37
14295;BME280;7231;59.370;18.016;2022-08-19T08:38:48;101166.25;;;34.31;47.18
14295;BME280;7231;59.370;18.016;2022-08-19T08:41:29;101136.50;;;34.28;47.48
14295;BME280;7231;59.370;18.016;2022-08-19T08:43:59;101161.69;;;34.31;47.60
14295;BME280;7231;59.370;18.016;2022-08-19T08:46:33;101160.94;;;34.56;46.59
14295;BME280;7231;59.370;18.016;2022-08-19T08:49:15;101160.78;;;34.72;45.38
14295;BME280;7231;59.370;18.016;2022-08-19T08:51:52;101164.16;;;34.75;45.38
14295;BME280;7231;59.370;18.016;2022-08-19T08:54:29;101164.13;;;34.90;44.93
14295;BME280;7231;59.370;18.016;2022-08-19T08:57:00;101167.00;;;35.01;44.61
14295;BME280;7231;59.370;18.016;2022-08-19T08:59:33;101169.63;;;35.15;44.30
14295;BME280;7231;59.370;18.016;2022-08-19T09:02:02;101115.53;;;35.09;43.51
14295;BME280;7231;59.370;18.016;2022-08-19T09:04:30;101166.53;;;35.46;43.14
14295;BME280;7231;59.370;18.016;2022-08-19T09:07:20;101147.88;;;35.53;42.77
14295;BME280;7231;59.370;18.016;2022-08-19T09:10:07;101148.63;;;35.81;42.43
14295;BME280;7231;59.370;18.016;2022-08-19T09:12:45;101160.28;;;35.95;41.91
14295;BME280;7231;59.370;18.016;2022-08-19T09:15:29;101151.81;;;36.24;42.10
14295;BME280;7231;59.370;18.016;2022-08-19T09:18:00;101146.00;;;36.52;42.63
14295;BME280;7231;59.370;18.016;2022-08-19T09:20:33;101144.09;;;36.65;41.42
14295;BME280;7231;59.370;18.016;2022-08-19T09:23:02;101128.75;;;36.76;41.26
14295;BME280;7231;59.370;18.016;2022-08-19T09:25:31;101142.34;;;36.88;40.32
14295;BME280;7231;59.370;18.016;2022-08-19T09:28:01;101137.63;;;36.90;40.16
14295;BME280;7231;59.370;18.016;2022-08-19T09:30:41;101113.00;;;36.55;40.36
14295;BME280;7231;59.370;18.016;2022-08-19T09:33:09;101137.22;;;36.84;40.23
14295;BME280;7231;59.370;18.016;2022-08-19T09:35:37;101144.25;;;36.99;40.30
14295;BME280;7231;59.370;18.016;2022-08-19T09:38:20;101149.88;;;37.20;39.55
14295;BME280;7231;59.370;18.016;2022-08-19T09:40:49;101148.19;;;37.30;39.04
14295;BME280;7231;59.370;18.016;2022-08-19T09:43:17;101142.63;;;37.43;38.96
14295;BME280;7231;59.370;18.016;2022-08-19T09:45:59;101147.38;;;37.63;38.35
14295;BME280;7231;59.370;18.016;2022-08-19T09:48:27;101142.78;;;37.86;38.94
14295;BME280;7231;59.370;18.016;2022-08-19T09:51:02;101107.72;;;37.68;37.61
14295;BME280;7231;59.370;18.016;2022-08-19T09:53:32;101132.94;;;37.94;37.80
14295;BME280;7231;59.370;18.016;2022-08-19T09:56:03;101128.97;;;37.98;37.49
14295;BME280;7231;59.370;18.016;2022-08-19T09:58:34;101142.03;;;38.17;37.46
14295;BME280;7231;59.370;18.016;2022-08-19T10:01:03;101118.25;;;38.18;37.54
14295;BME280;7231;59.370;18.016;2022-08-19T10:03:34;101133.25;;;38.46;36.93
14295;BME280;7231;59.370;18.016;2022-08-19T10:06:04;101128.63;;;38.46;36.22
14295;BME280;7231;59.370;18.016;2022-08-19T10:08:45;101111.06;;;38.49;36.74
14295;BME280;7231;59.370;18.016;2022-08-19T10:11:17;101123.69;;;38.72;35.80
14295;BME280;7231;59.370;18.016;2022-08-19T10:14:00;101122.28;;;38.78;35.89
14295;BME280;7231;59.370;18.016;2022-08-19T10:16:28;101121.44;;;38.77;35.32
14295;BME280;7231;59.370;18.016;2022-08-19T10:19:02;101121.03;;;38.82;36.01
14295;BME280;7231;59.370;18.016;2022-08-19T10:21:32;101119.56;;;38.99;36.24
14295;BME280;7231;59.370;18.016;2022-08-19T10:24:04;101117.28;;;39.04;36.21
14295;BME280;7231;59.370;18.016;2022-08-19T10:26:37;101119.69;;;38.97;35.21
14295;BME280;7231;59.370;18.016;2022-08-19T10:29:08;101115.00;;;38.67;34.68
14295;BME280;7231;59.370;18.016;2022-08-19T10:31:36;101107.53;;;38.58;34.81
14295;BME280;7231;59.370;18.016;2022-08-19T10:34:24;101106.91;;;38.22;35.89
14295;BME280;7231;59.370;18.016;2022-08-19T10:36:54;101115.88;;;38.24;35.51
14295;BME280;7231;59.370;18.016;2022-08-19T10:39:29;101111.72;;;38.41;35.38
14295;BME280;7231;59.370;18.016;2022-08-19T10:42:07;101106.97;;;38.43;35.25
14295;BME280;7231;59.370;18.016;2022-08-19T10:44:37;101110.84;;;38.41;35.37
14295;BME280;7231;59.370;18.016;2022-08-19T10:47:06;101113.97;;;38.36;35.78
14295;BME280;7231;59.370;18.016;2022-08-19T10:49:51;101109.78;;;38.53;35.99
14295;BME280;7231;59.370;18.016;2022-08-19T10:52:38;101112.03;;;38.16;35.42
14295;BME280;7231;59.370;18.016;2022-08-19T10:55:19;101104.09;;;37.90;35.16
14295;BME280;7231;59.370;18.016;2022-08-19T10:58:10;101103.59;;;37.74;35.51
14295;BME280;7231;59.370;18.016;2022-08-19T11:00:41;101102.22;;;37.80;35.49
14295;BME280;7231;59.370;18.016;2022-08-19T11:03:10;101101.72;;;37.52;35.53
14295;BME280;7231;59.370;18.016;2022-08-19T11:05:38;101058.31;;;36.79;36.51
14295;BME280;7231;59.370;18.016;2022-08-19T11:08:08;101098.22;;;36.58;36.88
14295;BME280;7231;59.370;18.016;2022-08-19T11:10:51;101052.09;;;35.94;37.29
14295;BME280;7231;59.370;18.016;2022-08-19T11:13:20;101097.84;;;35.78;37.55
14295;BME280;7231;59.370;18.016;2022-08-19T11:15:56;101104.00;;;35.82;37.76
14295;BME280;7231;59.370;18.016;2022-08-19T11:18:29;101084.06;;;35.43;37.92
14295;BME280;7231;59.370;18.016;2022-08-19T11:21:05;101099.50;;;35.04;38.92
14295;BME280;7231;59.370;18.016;2022-08-19T11:23:33;101095.34;;;34.86;39.67
14295;BME280;7231;59.370;18.016;2022-08-19T11:26:03;101061.97;;;34.43;39.22
14295;BME280;7231;59.370;18.016;2022-08-19T11:28:32;101071.25;;;34.26;38.28
14295;BME280;7231;59.370;18.016;2022-08-19T11:31:00;101080.09;;;34.57;38.42
14295;BME280;7231;59.370;18.016;2022-08-19T11:33:30;101090.03;;;35.10;39.98
14295;BME280;7231;59.370;18.016;2022-08-19T11:35:59;101072.72;;;35.36;38.46
14295;BME280;7231;59.370;18.016;2022-08-19T11:38:28;101088.91;;;35.89;38.19
14295;BME280;7231;59.370;18.016;2022-08-19T11:40:57;101086.84;;;36.16;38.09
14295;BME280;7231;59.370;18.016;2022-08-19T11:43:28;101086.25;;;36.00;38.22
14295;BME280;7231;59.370;18.016;2022-08-19T11:46:04;101091.16;;;35.45;39.15
14295;BME280;7231;59.370;18.016;2022-08-19T11:48:34;101089.81;;;35.26;39.34
14295;BME280;7231;59.370;18.016;2022-08-19T11:51:04;101091.13;;;35.07;39.22
14295;BME280;7231;59.370;18.016;2022-08-19T11:53:34;101056.31;;;34.46;39.75
14295;BME280;7231;59.370;18.016;2022-08-19T11:56:03;101074.72;;;34.42;40.44
14295;BME280;7231;59.370;18.016;2022-08-19T11:58:33;101077.06;;;34.61;40.12
14295;BME280;7231;59.370;18.016;2022-08-19T12:01:05;101081.66;;;34.73;40.17
14295;BME280;7231;59.370;18.016;2022-08-19T12:03:34;101084.47;;;34.59;40.19
14295;BME280;7231;59.370;18.016;2022-08-19T12:06:04;101085.50;;;34.44;40.19
14295;BME280;7231;59.370;18.016;2022-08-19T12:08:32;101082.66;;;34.18;41.06
14295;BME280;7231;59.370;18.016;2022-08-19T12:11:01;101082.38;;;34.50;40.82
14295;BME280;7231;59.370;18.016;2022-08-19T12:13:29;101068.72;;;34.77;40.27
14295;BME280;7231;59.370;18.016;2022-08-19T12:15:59;101087.66;;;35.43;40.08
14295;BME280;7231;59.370;18.016;2022-08-19T12:18:27;101077.94;;;36.01;38.52
14295;BME280;7231;59.370;18.016;2022-08-19T12:20:55;101080.41;;;36.41;38.10
14295;BME280;7231;59.370;18.016;2022-08-19T12:23:23;101084.06;;;36.88;38.85
14295;BME280;7231;59.370;18.016;2022-08-19T12:25:51;101071.13;;;37.36;36.86
14295;BME280;7231;59.370;18.016;2022-08-19T12:28:19;101080.81;;;37.85;36.68
14295;BME280;7231;59.370;18.016;2022-08-19T12:30:48;101094.13;;;37.56;36.50
14295;BME280;7231;59.370;18.016;2022-08-19T12:33:19;101086.66;;;37.47;36.46
14295;BME280;7231;59.370;18.016;2022-08-19T12:35:51;101085.19;;;37.54;35.78
14295;BME280;7231;59.370;18.016;2022-08-19T12:38:20;101087.28;;;37.28;34.51
14295;BME280;7231;59.370;18.016;2022-08-19T12:40:50;101086.94;;;36.86;34.02
14295;BME280;7231;59.370;18.016;2022-08-19T12:43:25;101081.00;;;36.33;34.68
14295;BME280;7231;59.370;18.016;2022-08-19T12:45:53;101090.41;;;35.93;34.43
14295;BME280;7231;59.370;18.016;2022-08-19T12:48:23;101084.88;;;35.82;34.02
14295;BME280;7231;59.370;18.016;2022-08-19T12:51:05;101077.50;;;35.20;34.57
14295;BME280;7231;59.370;18.016;2022-08-19T12:53:33;101069.75;;;35.27;34.00
14295;BME280;7231;59.370;18.016;2022-08-19T12:56:05;101082.63;;;35.50;34.87
14295;BME280;7231;59.370;18.016;2022-08-19T12:58:38;100983.56;;;35.50;33.64
14295;BME280;7231;59.370;18.016;2022-08-19T13:01:19;101067.66;;;35.68;33.27
14295;BME280;7231;59.370;18.016;2022-08-19T13:03:50;101057.34;;;35.35;34.22
14295;BME280;7231;59.370;18.016;2022-08-19T13:06:20;101074.50;;;35.87;33.98
14295;BME280;7231;59.370;18.016;2022-08-19T13:08:49;101073.06;;;36.30;33.21